sensor_id;sensor_type;location;lat;lon;timestamp;P1;durP1;ratioP1;P2;durP2;ratioP2
15536;SDS011;7870;52.448;13.270;2023-06-24T00:02:13;85.63;;;47.25;;
15536;SDS011;7870;52.448;13.270;2023-06-24T00:04:39;86.47;;;47.10;;
15536;SDS011;7870;52.448;13.270;2023-06-24T00:07:05;77.07;;;48.03;;
15536;SDS011;7870;52.448;13.270;2023-06-24T00:09:32;76.53;;;46.47;;
15536;SDS011;7870;52.448;13.270;2023-06-24T00:11:59;87.35;;;48.97;;
15536;SDS011;7870;52.448;13.270;2023-06-24T00:14:26;81.15;;;48.03;;
15536;SDS011;7870;52.448;13.270;2023-06-24T00:16:53;75.03;;;48.00;;
15536;SDS011;7870;52.448;13.270;2023-06-24T00:19:20;70.45;;;46.92;;
15536;SDS011;7870;52.448;13.270;2023-06-24T00:21:47;79.32;;;48.83;;
15536;SDS011;7870;52.448;13.270;2023-06-24T00:24:14;88.63;;;51.80;;
15536;SDS011;7870;52.448;13.270;2023-06-24T00:26:40;61.88;;;44.33;;
15536;SDS011;7870;52.448;13.270;2023-06-24T00:29:07;64.55;;;47.20;;
15536;SDS011;7870;52.448;13.270;2023-06-24T00:31:35;62.30;;;44.38;;
15536;SDS011;7870;52.448;13.270;2023-06-24T00:34:03;60.30;;;44.47;;
15536;SDS011;7870;52.448;13.270;2023-06-24T00:36:30;56.65;;;43.33;;
15536;SDS011;7870;52.448;13.270;2023-06-24T00:38:58;64.57;;;45.28;;
15536;SDS011;7870;52.448;13.270;2023-06-24T00:41:29;55.65;;;40.97;;
15536;SDS011;7870;52.448;13.270;2023-06-24T00:43:56;55.78;;;41.83;;
15536;SDS011;7870;52.448;13.270;2023-06-24T00:46:26;52.10;;;42.42;;
15536;SDS011;7870;52.448;13.270;2023-06-24T00:48:54;69.22;;;44.10;;
15536;SDS011;7870;52.448;13.270;2023-06-24T00:51:21;61.03;;;44.17;;
15536;SDS011;7870;52.448;13.270;2023-06-24T00:53:47;58.25;;;43.50;;
15536;SDS011;7870;52.448;13.270;2023-06-24T00:56:17;56.25;;;42.03;;
15536;SDS011;7870;52.448;13.270;2023-06-24T00:58:45;61.83;;;44.22;;
15536;SDS011;7870;52.448;13.270;2023-06-24T01:01:14;54.95;;;42.20;;
15536;SDS011;7870;52.448;13.270;2023-06-24T01:03:41;60.53;;;42.13;;
15536;SDS011;7870;52.448;13.270;2023-06-24T01:06:08;58.53;;;42.85;;
15536;SDS011;7870;52.448;13.270;2023-06-24T01:08:36;70.22;;;47.60;;
15536;SDS011;7870;52.448;13.270;2023-06-24T01:11:02;73.40;;;46.45;;
15536;SDS011;7870;52.448;13.270;2023-06-24T01:13:29;64.32;;;45.05;;
15536;SDS011;7870;52.448;13.270;2023-06-24T01:15:55;54.90;;;41.35;;
15536;SDS011;7870;52.448;13.270;2023-06-24T01:18:33;70.50;;;46.25;;
15536;SDS011;7870;52.448;13.270;2023-06-24T01:29:20;43.95;;;35.35;;
15536;SDS011;7870;52.448;13.270;2023-06-24T01:36:43;48.95;;;35.22;;
15536;SDS011;7870;52.448;13.270;2023-06-24T01:39:12;42.83;;;32.75;;
15536;SDS011;7870;52.448;13.270;2023-06-24T01:41:40;43.97;;;34.90;;
15536;SDS011;7870;52.448;13.270;2023-06-24T01:44:08;39.28;;;32.50;;
15536;SDS011;7870;52.448;13.270;2023-06-24T01:46:36;39.10;;;32.45;;
15536;SDS011;7870;52.448;13.270;2023-06-24T01:49:05;44.50;;;32.78;;
15536;SDS011;7870;52.448;13.270;2023-06-24T01:51:33;36.75;;;29.83;;
15536;SDS011;7870;52.448;13.270;2023-06-24T01:54:02;37.47;;;30.08;;
15536;SDS011;7870;52.448;13.270;2023-06-24T01:56:30;32.25;;;28.75;;
15536;SDS011;7870;52.448;13.270;2023-06-24T01:58:58;36.92;;;30.15;;
15536;SDS011;7870;52.448;13.270;2023-06-24T02:01:26;31.30;;;27.88;;
15536;SDS011;7870;52.448;13.270;2023-06-24T02:03:53;33.63;;;28.38;;
15536;SDS011;7870;52.448;13.270;2023-06-24T02:06:22;32.50;;;27.40;;
15536;SDS011;7870;52.448;13.270;2023-06-24T02:08:50;36.25;;;28.73;;
15536;SDS011;7870;52.448;13.270;2023-06-24T02:11:18;33.05;;;27.85;;
15536;SDS011;7870;52.448;13.270;2023-06-24T02:13:45;37.40;;;29.58;;
15536;SDS011;7870;52.448;13.270;2023-06-24T02:16:14;39.75;;;29.55;;
15536;SDS011;7870;52.448;13.270;2023-06-24T02:18:42;37.42;;;28.30;;
15536;SDS011;7870;52.448;13.270;2023-06-24T02:21:09;36.35;;;29.20;;
15536;SDS011;7870;52.448;13.270;2023-06-24T02:23:36;40.03;;;29.17;;
15536;SDS011;7870;52.448;13.270;2023-06-24T02:26:04;30.60;;;27.02;;
15536;SDS011;7870;52.448;13.270;2023-06-24T02:28:32;32.78;;;27.77;;
15536;SDS011;7870;52.448;13.270;2023-06-24T02:30:59;33.60;;;27.02;;
15536;SDS011;7870;52.448;13.270;2023-06-24T02:33:26;29.65;;;26.52;;
15536;SDS011;7870;52.448;13.270;2023-06-24T02:35:52;35.22;;;27.25;;
15536;SDS011;7870;52.448;13.270;2023-06-24T02:38:19;38.58;;;28.98;;
15536;SDS011;7870;52.448;13.270;2023-06-24T02:40:46;35.83;;;27.52;;
15536;SDS011;7870;52.448;13.270;2023-06-24T02:43:13;30.85;;;25.33;;
15536;SDS011;7870;52.448;13.270;2023-06-24T02:45:39;33.42;;;26.50;;
15536;SDS011;7870;52.448;13.270;2023-06-24T02:48:07;40.50;;;28.80;;
15536;SDS011;7870;52.448;13.270;2023-06-24T02:50:34;46.33;;;30.02;;
15536;SDS011;7870;52.448;13.270;2023-06-24T02:53:01;39.10;;;28.17;;
15536;SDS011;7870;52.448;13.270;2023-06-24T02:55:32;36.60;;;27.33;;
15536;SDS011;7870;52.448;13.270;2023-06-24T02:58:02;33.45;;;24.35;;
15536;SDS011;7870;52.448;13.270;2023-06-24T03:00:51;56.00;;;32.95;;
15536;SDS011;7870;52.448;13.270;2023-06-24T03:03:28;34.85;;;27.17;;
15536;SDS011;7870;52.448;13.270;2023-06-24T03:05:56;37.08;;;26.33;;
15536;SDS011;7870;52.448;13.270;2023-06-24T03:08:24;35.53;;;27.10;;
15536;SDS011;7870;52.448;13.270;2023-06-24T03:10:54;32.22;;;25.23;;
15536;SDS011;7870;52.448;13.270;2023-06-24T03:13:22;32.22;;;25.15;;
15536;SDS011;7870;52.448;13.270;2023-06-24T03:15:59;37.00;;;27.15;;
15536;SDS011;7870;52.448;13.270;2023-06-24T03:18:28;30.70;;;23.52;;
15536;SDS011;7870;52.448;13.270;2023-06-24T03:20:54;34.63;;;24.45;;
15536;SDS011;7870;52.448;13.270;2023-06-24T03:23:24;32.33;;;25.10;;
15536;SDS011;7870;52.448;13.270;2023-06-24T03:25:52;34.80;;;26.25;;
15536;SDS011;7870;52.448;13.270;2023-06-24T03:28:18;32.20;;;24.88;;
15536;SDS011;7870;52.448;13.270;2023-06-24T03:30:51;36.70;;;26.55;;
15536;SDS011;7870;52.448;13.270;2023-06-24T03:33:19;32.38;;;24.30;;
15536;SDS011;7870;52.448;13.270;2023-06-24T03:35:45;34.33;;;26.98;;
15536;SDS011;7870;52.448;13.270;2023-06-24T03:38:17;36.05;;;25.17;;
15536;SDS011;7870;52.448;13.270;2023-06-24T03:40:45;38.22;;;26.63;;
15536;SDS011;7870;52.448;13.270;2023-06-24T03:43:11;30.40;;;24.98;;
15536;SDS011;7870;52.448;13.270;2023-06-24T03:45:37;29.13;;;23.90;;
15536;SDS011;7870;52.448;13.270;2023-06-24T03:48:04;35.00;;;25.73;;
15536;SDS011;7870;52.448;13.270;2023-06-24T03:50:31;29.13;;;24.42;;
15536;SDS011;7870;52.448;13.270;2023-06-24T03:52:58;30.40;;;24.75;;
15536;SDS011;7870;52.448;13.270;2023-06-24T03:55:25;31.98;;;23.75;;
15536;SDS011;7870;52.448;13.270;2023-06-24T03:57:52;33.33;;;25.90;;
15536;SDS011;7870;52.448;13.270;2023-06-24T04:00:20;30.08;;;24.42;;
15536;SDS011;7870;52.448;13.270;2023-06-24T04:02:47;29.75;;;24.02;;
15536;SDS011;7870;52.448;13.270;2023-06-24T04:05:14;32.78;;;23.25;;
15536;SDS011;7870;52.448;13.270;2023-06-24T04:07:41;32.25;;;24.23;;
15536;SDS011;7870;52.448;13.270;2023-06-24T04:10:08;32.22;;;25.02;;
15536;SDS011;7870;52.448;13.270;2023-06-24T04:12:35;35.05;;;25.08;;
15536;SDS011;7870;52.448;13.270;2023-06-24T04:15:02;33.83;;;25.63;;
15536;SDS011;7870;52.448;13.270;2023-06-24T04:17:31;35.88;;;25.13;;
15536;SDS011;7870;52.448;13.270;2023-06-24T04:19:58;30.83;;;23.90;;
15536;SDS011;7870;52.448;13.270;2023-06-24T04:22:25;28.95;;;24.35;;
15536;SDS011;7870;52.448;13.270;2023-06-24T04:27:23;27.25;;;22.83;;
15536;SDS011;7870;52.448;13.270;2023-06-24T04:29:49;32.83;;;23.05;;
15536;SDS011;7870;52.448;13.270;2023-06-24T04:32:16;27.20;;;22.80;;
15536;SDS011;7870;52.448;13.270;2023-06-24T04:34:42;29.92;;;21.90;;
15536;SDS011;7870;52.448;13.270;2023-06-24T04:37:09;27.73;;;22.60;;
15536;SDS011;7870;52.448;13.270;2023-06-24T04:39:36;25.52;;;22.13;;
15536;SDS011;7870;52.448;13.270;2023-06-24T04:42:03;24.35;;;21.73;;
15536;SDS011;7870;52.448;13.270;2023-06-24T04:44:29;23.90;;;20.77;;
15536;SDS011;7870;52.448;13.270;2023-06-24T04:46:56;28.65;;;22.13;;
15536;SDS011;7870;52.448;13.270;2023-06-24T04:49:22;25.40;;;22.25;;
15536;SDS011;7870;52.448;13.270;2023-06-24T04:51:48;23.88;;;21.27;;
15536;SDS011;7870;52.448;13.270;2023-06-24T04:54:15;23.60;;;20.92;;
15536;SDS011;7870;52.448;13.270;2023-06-24T04:56:41;24.40;;;20.45;;
15536;SDS011;7870;52.448;13.270;2023-06-24T04:59:08;21.85;;;19.50;;
15536;SDS011;7870;52.448;13.270;2023-06-24T05:01:34;26.20;;;21.45;;
15536;SDS011;7870;52.448;13.270;2023-06-24T05:04:00;26.50;;;21.27;;
15536;SDS011;7870;52.448;13.270;2023-06-24T05:06:27;22.85;;;20.40;;
15536;SDS011;7870;52.448;13.270;2023-06-24T05:08:53;23.05;;;19.95;;
15536;SDS011;7870;52.448;13.270;2023-06-24T05:11:20;23.42;;;19.55;;
15536;SDS011;7870;52.448;13.270;2023-06-24T05:13:46;22.45;;;18.65;;
15536;SDS011;7870;52.448;13.270;2023-06-24T05:16:13;22.73;;;19.63;;
15536;SDS011;7870;52.448;13.270;2023-06-24T05:18:39;22.38;;;18.88;;
15536;SDS011;7870;52.448;13.270;2023-06-24T05:21:06;21.48;;;18.13;;
15536;SDS011;7870;52.448;13.270;2023-06-24T05:23:32;21.60;;;18.60;;
15536;SDS011;7870;52.448;13.270;2023-06-24T05:25:59;22.73;;;19.83;;
15536;SDS011;7870;52.448;13.270;2023-06-24T05:28:25;21.70;;;19.05;;
15536;SDS011;7870;52.448;13.270;2023-06-24T05:30:51;22.05;;;18.33;;
15536;SDS011;7870;52.448;13.270;2023-06-24T05:33:18;20.40;;;18.20;;
15536;SDS011;7870;52.448;13.270;2023-06-24T05:35:44;19.77;;;17.73;;
15536;SDS011;7870;52.448;13.270;2023-06-24T05:38:11;21.95;;;18.10;;
15536;SDS011;7870;52.448;13.270;2023-06-24T05:40:37;20.45;;;16.52;;
15536;SDS011;7870;52.448;13.270;2023-06-24T05:43:04;19.65;;;17.67;;
15536;SDS011;7870;52.448;13.270;2023-06-24T05:45:30;20.50;;;17.35;;
15536;SDS011;7870;52.448;13.270;2023-06-24T05:47:56;20.10;;;16.05;;
15536;SDS011;7870;52.448;13.270;2023-06-24T05:50:23;18.42;;;16.25;;
15536;SDS011;7870;52.448;13.270;2023-06-24T05:52:49;17.05;;;15.43;;
15536;SDS011;7870;52.448;13.270;2023-06-24T05:55:16;23.15;;;15.65;;
15536;SDS011;7870;52.448;13.270;2023-06-24T05:57:42;16.17;;;14.48;;
15536;SDS011;7870;52.448;13.270;2023-06-24T06:00:09;16.35;;;14.60;;
15536;SDS011;7870;52.448;13.270;2023-06-24T06:02:41;15.38;;;13.77;;
15536;SDS011;7870;52.448;13.270;2023-06-24T06:05:07;16.33;;;14.60;;
15536;SDS011;7870;52.448;13.270;2023-06-24T06:07:34;15.50;;;13.77;;
15536;SDS011;7870;52.448;13.270;2023-06-24T06:10:01;13.98;;;12.57;;
15536;SDS011;7870;52.448;13.270;2023-06-24T06:12:27;14.70;;;13.20;;
15536;SDS011;7870;52.448;13.270;2023-06-24T06:14:54;14.82;;;13.32;;
15536;SDS011;7870;52.448;13.270;2023-06-24T06:17:20;13.77;;;12.40;;
15536;SDS011;7870;52.448;13.270;2023-06-24T06:19:46;14.32;;;12.13;;
15536;SDS011;7870;52.448;13.270;2023-06-24T06:22:15;12.43;;;11.23;;
15536;SDS011;7870;52.448;13.270;2023-06-24T06:24:42;11.80;;;10.52;;
15536;SDS011;7870;52.448;13.270;2023-06-24T06:27:09;11.50;;;10.25;;
15536;SDS011;7870;52.448;13.270;2023-06-24T06:29:35;11.50;;;10.30;;
15536;SDS011;7870;52.448;13.270;2023-06-24T06:32:02;13.07;;;10.80;;
15536;SDS011;7870;52.448;13.270;2023-06-24T06:34:28;13.63;;;11.05;;
15536;SDS011;7870;52.448;13.270;2023-06-24T06:36:55;12.55;;;10.05;;
15536;SDS011;7870;52.448;13.270;2023-06-24T06:39:21;13.57;;;10.13;;
15536;SDS011;7870;52.448;13.270;2023-06-24T06:41:48;11.20;;;10.00;;
15536;SDS011;7870;52.448;13.270;2023-06-24T06:44:15;12.38;;;9.95;;
15536;SDS011;7870;52.448;13.270;2023-06-24T06:46:41;13.35;;;10.48;;
15536;SDS011;7870;52.448;13.270;2023-06-24T06:49:08;11.82;;;10.48;;
15536;SDS011;7870;52.448;13.270;2023-06-24T06:51:34;12.73;;;11.20;;
15536;SDS011;7870;52.448;13.270;2023-06-24T06:54:02;10.95;;;9.88;;
15536;SDS011;7870;52.448;13.270;2023-06-24T06:56:30;11.98;;;10.27;;
15536;SDS011;7870;52.448;13.270;2023-06-24T06:58:57;10.10;;;9.10;;
15536;SDS011;7870;52.448;13.270;2023-06-24T07:01:23;10.98;;;9.90;;
15536;SDS011;7870;52.448;13.270;2023-06-24T07:03:50;10.43;;;8.88;;
15536;SDS011;7870;52.448;13.270;2023-06-24T07:06:20;12.68;;;9.55;;
15536;SDS011;7870;52.448;13.270;2023-06-24T07:08:46;13.88;;;9.35;;
15536;SDS011;7870;52.448;13.270;2023-06-24T07:11:13;10.75;;;9.52;;
15536;SDS011;7870;52.448;13.270;2023-06-24T07:13:39;12.35;;;9.63;;
15536;SDS011;7870;52.448;13.270;2023-06-24T07:16:05;13.75;;;10.32;;
15536;SDS011;7870;52.448;13.270;2023-06-24T07:18:32;13.98;;;9.70;;
15536;SDS011;7870;52.448;13.270;2023-06-24T07:20:59;11.10;;;8.20;;
15536;SDS011;7870;52.448;13.270;2023-06-24T07:23:25;10.65;;;8.18;;
15536;SDS011;7870;52.448;13.270;2023-06-24T07:25:52;8.70;;;7.85;;
15536;SDS011;7870;52.448;13.270;2023-06-24T07:28:18;10.77;;;8.65;;
15536;SDS011;7870;52.448;13.270;2023-06-24T07:30:45;9.70;;;8.60;;
15536;SDS011;7870;52.448;13.270;2023-06-24T07:33:11;10.27;;;9.07;;
15536;SDS011;7870;52.448;13.270;2023-06-24T07:35:37;11.30;;;8.68;;
15536;SDS011;7870;52.448;13.270;2023-06-24T07:38:04;9.02;;;7.65;;
15536;SDS011;7870;52.448;13.270;2023-06-24T07:40:30;10.18;;;9.18;;
15536;SDS011;7870;52.448;13.270;2023-06-24T07:42:57;10.50;;;9.48;;
15536;SDS011;7870;52.448;13.270;2023-06-24T07:45:23;10.02;;;9.02;;
15536;SDS011;7870;52.448;13.270;2023-06-24T07:47:51;12.23;;;8.73;;
15536;SDS011;7870;52.448;13.270;2023-06-24T07:50:18;7.95;;;7.25;;
15536;SDS011;7870;52.448;13.270;2023-06-24T07:52:44;9.75;;;7.80;;
15536;SDS011;7870;52.448;13.270;2023-06-24T07:55:10;11.60;;;6.88;;
15536;SDS011;7870;52.448;13.270;2023-06-24T07:57:37;7.80;;;6.90;;
15536;SDS011;7870;52.448;13.270;2023-06-24T08:00:06;8.48;;;7.45;;
15536;SDS011;7870;52.448;13.270;2023-06-24T08:02:42;8.15;;;7.35;;
15536;SDS011;7870;52.448;13.270;2023-06-24T08:05:08;9.18;;;7.20;;
15536;SDS011;7870;52.448;13.270;2023-06-24T08:07:35;7.43;;;6.72;;
15536;SDS011;7870;52.448;13.270;2023-06-24T08:10:02;8.73;;;6.50;;
15536;SDS011;7870;52.448;13.270;2023-06-24T08:12:28;9.32;;;7.47;;
15536;SDS011;7870;52.448;13.270;2023-06-24T08:14:55;8.02;;;6.70;;
15536;SDS011;7870;52.448;13.270;2023-06-24T08:17:21;6.55;;;5.95;;
15536;SDS011;7870;52.448;13.270;2023-06-24T08:19:48;6.97;;;5.55;;
15536;SDS011;7870;52.448;13.270;2023-06-24T08:22:15;6.13;;;5.25;;
15536;SDS011;7870;52.448;13.270;2023-06-24T08:24:41;6.88;;;6.10;;
15536;SDS011;7870;52.448;13.270;2023-06-24T08:27:07;6.78;;;5.82;;
15536;SDS011;7870;52.448;13.270;2023-06-24T08:29:34;6.47;;;5.80;;
15536;SDS011;7870;52.448;13.270;2023-06-24T08:32:01;8.55;;;6.43;;
15536;SDS011;7870;52.448;13.270;2023-06-24T08:34:27;8.45;;;6.78;;
15536;SDS011;7870;52.448;13.270;2023-06-24T08:36:54;8.90;;;6.25;;
15536;SDS011;7870;52.448;13.270;2023-06-24T08:39:20;8.80;;;7.05;;
15536;SDS011;7870;52.448;13.270;2023-06-24T08:41:46;6.65;;;5.40;;
15536;SDS011;7870;52.448;13.270;2023-06-24T08:44:13;7.47;;;4.82;;
15536;SDS011;7870;52.448;13.270;2023-06-24T08:46:39;8.07;;;5.10;;
15536;SDS011;7870;52.448;13.270;2023-06-24T08:49:12;9.52;;;6.03;;
15536;SDS011;7870;52.448;13.270;2023-06-24T08:51:42;5.78;;;5.05;;
15536;SDS011;7870;52.448;13.270;2023-06-24T08:54:10;8.82;;;5.80;;
15536;SDS011;7870;52.448;13.270;2023-06-24T08:56:37;6.03;;;4.82;;
15536;SDS011;7870;52.448;13.270;2023-06-24T08:59:08;6.30;;;4.82;;
15536;SDS011;7870;52.448;13.270;2023-06-24T09:01:34;5.45;;;4.47;;
15536;SDS011;7870;52.448;13.270;2023-06-24T09:04:01;5.72;;;5.00;;
15536;SDS011;7870;52.448;13.270;2023-06-24T09:06:27;6.07;;;4.68;;
15536;SDS011;7870;52.448;13.270;2023-06-24T09:08:54;6.50;;;4.28;;
15536;SDS011;7870;52.448;13.270;2023-06-24T09:11:24;5.82;;;3.72;;
15536;SDS011;7870;52.448;13.270;2023-06-24T09:13:57;4.50;;;3.63;;
15536;SDS011;7870;52.448;13.270;2023-06-24T09:16:24;7.15;;;3.83;;
15536;SDS011;7870;52.448;13.270;2023-06-24T09:18:50;8.35;;;4.25;;
15536;SDS011;7870;52.448;13.270;2023-06-24T09:21:21;5.43;;;4.28;;
15536;SDS011;7870;52.448;13.270;2023-06-24T09:23:50;6.10;;;4.78;;
15536;SDS011;7870;52.448;13.270;2023-06-24T09:26:16;5.60;;;4.10;;
15536;SDS011;7870;52.448;13.270;2023-06-24T09:28:47;7.22;;;4.80;;
15536;SDS011;7870;52.448;13.270;2023-06-24T09:31:13;4.68;;;4.10;;
15536;SDS011;7870;52.448;13.270;2023-06-24T09:33:45;8.13;;;4.10;;
15536;SDS011;7870;52.448;13.270;2023-06-24T09:36:12;6.70;;;3.88;;
15536;SDS011;7870;52.448;13.270;2023-06-24T09:38:41;5.65;;;3.75;;
15536;SDS011;7870;52.448;13.270;2023-06-24T09:41:08;4.60;;;3.92;;
15536;SDS011;7870;52.448;13.270;2023-06-24T09:43:40;6.60;;;4.20;;
15536;SDS011;7870;52.448;13.270;2023-06-24T09:46:10;5.55;;;3.95;;
15536;SDS011;7870;52.448;13.270;2023-06-24T09:48:37;6.25;;;3.80;;
15536;SDS011;7870;52.448;13.270;2023-06-24T09:51:04;4.65;;;3.67;;
15536;SDS011;7870;52.448;13.270;2023-06-24T09:53:31;4.47;;;3.65;;
15536;SDS011;7870;52.448;13.270;2023-06-24T09:56:01;6.82;;;4.32;;
15536;SDS011;7870;52.448;13.270;2023-06-24T09:58:28;6.22;;;4.10;;
15536;SDS011;7870;52.448;13.270;2023-06-24T10:00:58;5.90;;;4.50;;
15536;SDS011;7870;52.448;13.270;2023-06-24T10:03:27;4.63;;;3.60;;
15536;SDS011;7870;52.448;13.270;2023-06-24T10:05:54;4.63;;;3.65;;
15536;SDS011;7870;52.448;13.270;2023-06-24T10:08:21;5.75;;;4.55;;
15536;SDS011;7870;52.448;13.270;2023-06-24T10:10:47;8.85;;;3.90;;
15536;SDS011;7870;52.448;13.270;2023-06-24T10:13:14;4.50;;;3.47;;
15536;SDS011;7870;52.448;13.270;2023-06-24T10:15:41;4.78;;;3.15;;
15536;SDS011;7870;52.448;13.270;2023-06-24T10:18:31;5.57;;;3.20;;
15536;SDS011;7870;52.448;13.270;2023-06-24T10:20:57;5.35;;;3.88;;
15536;SDS011;7870;52.448;13.270;2023-06-24T10:23:31;4.82;;;3.63;;
15536;SDS011;7870;52.448;13.270;2023-06-24T10:25:58;5.15;;;3.90;;
15536;SDS011;7870;52.448;13.270;2023-06-24T10:28:24;5.35;;;3.50;;
15536;SDS011;7870;52.448;13.270;2023-06-24T10:30:54;4.43;;;3.40;;
15536;SDS011;7870;52.448;13.270;2023-06-24T10:33:20;6.18;;;3.78;;
15536;SDS011;7870;52.448;13.270;2023-06-24T10:35:46;7.63;;;3.80;;
15536;SDS011;7870;52.448;13.270;2023-06-24T10:38:13;5.90;;;4.10;;
15536;SDS011;7870;52.448;13.270;2023-06-24T10:45:54;5.88;;;3.47;;
15536;SDS011;7870;52.448;13.270;2023-06-24T10:48:21;4.85;;;3.20;;
15536;SDS011;7870;52.448;13.270;2023-06-24T10:50:48;5.50;;;3.50;;
15536;SDS011;7870;52.448;13.270;2023-06-24T10:53:15;4.60;;;3.50;;
15536;SDS011;7870;52.448;13.270;2023-06-24T10:55:44;3.63;;;3.03;;
15536;SDS011;7870;52.448;13.270;2023-06-24T10:58:13;6.10;;;3.55;;
15536;SDS011;7870;52.448;13.270;2023-06-24T11:00:40;5.75;;;3.10;;
15536;SDS011;7870;52.448;13.270;2023-06-24T11:03:09;4.85;;;3.83;;
15536;SDS011;7870;52.448;13.270;2023-06-24T11:05:38;4.45;;;3.08;;
15536;SDS011;7870;52.448;13.270;2023-06-24T11:08:05;5.70;;;3.63;;
15536;SDS011;7870;52.448;13.270;2023-06-24T11:10:31;4.10;;;3.70;;
15536;SDS011;7870;52.448;13.270;2023-06-24T11:13:04;5.90;;;3.30;;
15536;SDS011;7870;52.448;13.270;2023-06-24T11:15:31;3.10;;;2.75;;
15536;SDS011;7870;52.448;13.270;2023-06-24T11:18:02;11.00;;;3.92;;
15536;SDS011;7870;52.448;13.270;2023-06-24T11:20:29;4.97;;;3.28;;
15536;SDS011;7870;52.448;13.270;2023-06-24T11:22:56;5.72;;;3.67;;
15536;SDS011;7870;52.448;13.270;2023-06-24T11:25:22;5.93;;;3.83;;
15536;SDS011;7870;52.448;13.270;2023-06-24T11:27:50;6.03;;;4.10;;
15536;SDS011;7870;52.448;13.270;2023-06-24T11:30:19;4.25;;;3.45;;
15536;SDS011;7870;52.448;13.270;2023-06-24T11:32:46;4.95;;;3.33;;
15536;SDS011;7870;52.448;13.270;2023-06-24T11:35:14;5.43;;;3.90;;
15536;SDS011;7870;52.448;13.270;2023-06-24T11:37:46;7.05;;;3.92;;
15536;SDS011;7870;52.448;13.270;2023-06-24T11:40:13;5.05;;;3.50;;
15536;SDS011;7870;52.448;13.270;2023-06-24T11:42:40;5.28;;;3.85;;
15536;SDS011;7870;52.448;13.270;2023-06-24T11:45:07;4.35;;;3.60;;
15536;SDS011;7870;52.448;13.270;2023-06-24T11:47:34;7.70;;;4.32;;
15536;SDS011;7870;52.448;13.270;2023-06-24T11:50:01;5.40;;;3.72;;
15536;SDS011;7870;52.448;13.270;2023-06-24T11:52:46;4.82;;;4.07;;
15536;SDS011;7870;52.448;13.270;2023-06-24T11:55:20;4.18;;;3.55;;
15536;SDS011;7870;52.448;13.270;2023-06-24T12:00:14;7.00;;;4.30;;
15536;SDS011;7870;52.448;13.270;2023-06-24T12:02:41;6.30;;;3.83;;
15536;SDS011;7870;52.448;13.270;2023-06-24T12:05:08;4.90;;;3.90;;
15536;SDS011;7870;52.448;13.270;2023-06-24T12:07:34;5.97;;;3.50;;
15536;SDS011;7870;52.448;13.270;2023-06-24T12:10:01;6.32;;;4.22;;
15536;SDS011;7870;52.448;13.270;2023-06-24T12:12:27;5.57;;;4.35;;
15536;SDS011;7870;52.448;13.270;2023-06-24T12:14:53;11.35;;;3.65;;
15536;SDS011;7870;52.448;13.270;2023-06-24T12:17:20;5.03;;;3.53;;
15536;SDS011;7870;52.448;13.270;2023-06-24T12:19:46;5.53;;;3.83;;
15536;SDS011;7870;52.448;13.270;2023-06-24T12:22:13;6.50;;;3.75;;
15536;SDS011;7870;52.448;13.270;2023-06-24T12:25:03;4.67;;;3.43;;
15536;SDS011;7870;52.448;13.270;2023-06-24T12:27:31;5.00;;;3.42;;
15536;SDS011;7870;52.448;13.270;2023-06-24T12:29:58;19.35;;;4.22;;
15536;SDS011;7870;52.448;13.270;2023-06-24T12:32:24;5.32;;;3.30;;
15536;SDS011;7870;52.448;13.270;2023-06-24T12:34:50;6.55;;;3.20;;
15536;SDS011;7870;52.448;13.270;2023-06-24T12:37:17;5.90;;;3.55;;
15536;SDS011;7870;52.448;13.270;2023-06-24T12:39:44;7.15;;;4.10;;
15536;SDS011;7870;52.448;13.270;2023-06-24T12:42:10;9.02;;;4.38;;
15536;SDS011;7870;52.448;13.270;2023-06-24T12:44:37;6.72;;;4.00;;
15536;SDS011;7870;52.448;13.270;2023-06-24T12:47:03;4.78;;;3.17;;
15536;SDS011;7870;52.448;13.270;2023-06-24T12:49:30;6.00;;;3.83;;
15536;SDS011;7870;52.448;13.270;2023-06-24T12:51:56;6.10;;;3.58;;
15536;SDS011;7870;52.448;13.270;2023-06-24T12:54:23;8.20;;;3.72;;
15536;SDS011;7870;52.448;13.270;2023-06-24T12:56:49;7.63;;;3.40;;
15536;SDS011;7870;52.448;13.270;2023-06-24T12:59:24;6.95;;;3.75;;
15536;SDS011;7870;52.448;13.270;2023-06-24T13:01:52;5.85;;;3.35;;
15536;SDS011;7870;52.448;13.270;2023-06-24T13:04:19;4.00;;;3.05;;
15536;SDS011;7870;52.448;13.270;2023-06-24T13:06:48;4.18;;;3.28;;
15536;SDS011;7870;52.448;13.270;2023-06-24T13:09:15;6.43;;;4.32;;
15536;SDS011;7870;52.448;13.270;2023-06-24T13:11:41;4.03;;;3.42;;
15536;SDS011;7870;52.448;13.270;2023-06-24T13:14:08;4.35;;;3.67;;
15536;SDS011;7870;52.448;13.270;2023-06-24T13:16:37;5.68;;;3.53;;
15536;SDS011;7870;52.448;13.270;2023-06-24T13:19:04;4.00;;;3.30;;
15536;SDS011;7870;52.448;13.270;2023-06-24T13:21:30;9.57;;;3.88;;
15536;SDS011;7870;52.448;13.270;2023-06-24T13:23:56;7.53;;;3.70;;
15536;SDS011;7870;52.448;13.270;2023-06-24T13:26:23;10.63;;;4.70;;
15536;SDS011;7870;52.448;13.270;2023-06-24T13:28:53;18.45;;;5.07;;
15536;SDS011;7870;52.448;13.270;2023-06-24T13:31:20;6.03;;;3.97;;
15536;SDS011;7870;52.448;13.270;2023-06-24T13:33:48;7.68;;;3.40;;
15536;SDS011;7870;52.448;13.270;2023-06-24T13:36:35;6.13;;;3.83;;
15536;SDS011;7870;52.448;13.270;2023-06-24T13:39:03;6.10;;;4.25;;
15536;SDS011;7870;52.448;13.270;2023-06-24T13:41:30;7.13;;;4.25;;
15536;SDS011;7870;52.448;13.270;2023-06-24T13:44:01;4.82;;;3.28;;
15536;SDS011;7870;52.448;13.270;2023-06-24T13:46:28;5.43;;;3.70;;
15536;SDS011;7870;52.448;13.270;2023-06-24T13:48:55;6.30;;;3.63;;
15536;SDS011;7870;52.448;13.270;2023-06-24T13:51:22;7.75;;;4.05;;
15536;SDS011;7870;52.448;13.270;2023-06-24T13:53:49;6.72;;;4.15;;
15536;SDS011;7870;52.448;13.270;2023-06-24T13:56:17;5.07;;;4.18;;
15536;SDS011;7870;52.448;13.270;2023-06-24T13:58:44;5.03;;;3.83;;
15536;SDS011;7870;52.448;13.270;2023-06-24T14:01:10;6.65;;;4.05;;
15536;SDS011;7870;52.448;13.270;2023-06-24T14:03:37;5.25;;;3.60;;
15536;SDS011;7870;52.448;13.270;2023-06-24T14:06:03;4.43;;;3.80;;
15536;SDS011;7870;52.448;13.270;2023-06-24T14:08:31;5.30;;;3.72;;
15536;SDS011;7870;52.448;13.270;2023-06-24T14:10:58;5.53;;;4.07;;
15536;SDS011;7870;52.448;13.270;2023-06-24T14:13:25;8.63;;;3.95;;
15536;SDS011;7870;52.448;13.270;2023-06-24T14:15:53;7.40;;;3.97;;
15536;SDS011;7870;52.448;13.270;2023-06-24T14:18:19;6.07;;;4.05;;
15536;SDS011;7870;52.448;13.270;2023-06-24T14:20:45;12.40;;;3.97;;
15536;SDS011;7870;52.448;13.270;2023-06-24T14:23:12;10.35;;;4.07;;
15536;SDS011;7870;52.448;13.270;2023-06-24T14:25:39;5.50;;;3.67;;
15536;SDS011;7870;52.448;13.270;2023-06-24T14:28:05;5.82;;;3.72;;
15536;SDS011;7870;52.448;13.270;2023-06-24T14:30:32;7.28;;;6.55;;
15536;SDS011;7870;52.448;13.270;2023-06-24T14:32:59;5.15;;;3.72;;
15536;SDS011;7870;52.448;13.270;2023-06-24T14:35:25;7.40;;;4.03;;
15536;SDS011;7870;52.448;13.270;2023-06-24T14:37:52;5.57;;;3.72;;
15536;SDS011;7870;52.448;13.270;2023-06-24T14:40:18;5.50;;;3.70;;
15536;SDS011;7870;52.448;13.270;2023-06-24T14:42:44;4.82;;;3.58;;
15536;SDS011;7870;52.448;13.270;2023-06-24T14:45:11;5.85;;;4.07;;
15536;SDS011;7870;52.448;13.270;2023-06-24T14:47:37;5.25;;;3.78;;
15536;SDS011;7870;52.448;13.270;2023-06-24T14:50:04;5.68;;;4.32;;
15536;SDS011;7870;52.448;13.270;2023-06-24T14:52:30;4.32;;;3.88;;
15536;SDS011;7870;52.448;13.270;2023-06-24T15:41:45;5.05;;;3.70;;
15536;SDS011;7870;52.448;13.270;2023-06-24T15:44:12;4.20;;;3.78;;
15536;SDS011;7870;52.448;13.270;2023-06-24T15:46:40;6.53;;;4.43;;
15536;SDS011;7870;52.448;13.270;2023-06-24T15:49:11;5.20;;;4.15;;